Portada
METAR-TAF:

METAR-TAF

Aeroports :

Waterbury-Oxford Airport

Oxford, Connecticut, Estats Units d'Amèrica

latitud: 41-29N, longitud: 073-08W, altitud: 222 m

Observació

L'informe es va fer fa 24 minuts, a les 22:51 UTC
Vent 7 kt del Sud, variant entre Sud/Sud-Est i Sud-Oest
Temperatura 16°C
Humitat 63%
Pressió 1024 hPa
Visibilitat: 16.1 km
Cel clar

METAR: KOXC 242251Z 18007KT 150V220 10SM CLR 16/09 A3024 RMK AO2 SLP253 T01610094

Hora: 19:15 (23:15 UTC)


TAF: manca

Observacions i pronòstics meteorològics de més de 4000 aeroports (METAR i TAF).

Les estacions disponibles són els punts grocs i vermells al mapa.

Posi el ratolí al punt desitjat per veure el nom de l'estació.

Feu clic per veure les observacions i els pronòstics meteorològics.

Per canviar el mapa: feu clic els botons verds amb una creu de color negre per apropar; al botó verd amb un guió per allunyar la imatge; o en les fletxes verdes per a mapes adjacents.


METAR-TAF: